sensor_id;sensor_type;location;lat;lon;timestamp;P1;durP1;ratioP1;P2;durP2;ratioP2
2338;SDS011;1180;51.438;6.978;2022-10-31T00:00:59;8.90;;;7.10;;
2338;SDS011;1180;51.438;6.978;2022-10-31T00:03:24;13.13;;;7.97;;
2338;SDS011;1180;51.438;6.978;2022-10-31T00:05:51;12.70;;;7.90;;
2338;SDS011;1180;51.438;6.978;2022-10-31T00:08:17;14.83;;;8.30;;
2338;SDS011;1180;51.438;6.978;2022-10-31T00:10:43;12.57;;;8.43;;
2338;SDS011;1180;51.438;6.978;2022-10-31T00:13:09;10.40;;;7.40;;
2338;SDS011;1180;51.438;6.978;2022-10-31T00:15:36;12.60;;;9.57;;
2338;SDS011;1180;51.438;6.978;2022-10-31T00:18:02;8.47;;;7.07;;
2338;SDS011;1180;51.438;6.978;2022-10-31T00:20:29;13.43;;;9.07;;
2338;SDS011;1180;51.438;6.978;2022-10-31T00:22:57;11.07;;;8.10;;
2338;SDS011;1180;51.438;6.978;2022-10-31T00:25:22;10.13;;;8.10;;
2338;SDS011;1180;51.438;6.978;2022-10-31T00:27:48;15.37;;;8.80;;
2338;SDS011;1180;51.438;6.978;2022-10-31T00:30:14;12.37;;;8.03;;
2338;SDS011;1180;51.438;6.978;2022-10-31T00:32:39;12.83;;;9.37;;
2338;SDS011;1180;51.438;6.978;2022-10-31T00:35:05;11.30;;;9.10;;
2338;SDS011;1180;51.438;6.978;2022-10-31T00:37:30;15.37;;;9.90;;
2338;SDS011;1180;51.438;6.978;2022-10-31T00:39:56;10.87;;;8.43;;
2338;SDS011;1180;51.438;6.978;2022-10-31T00:42:21;12.67;;;9.77;;
2338;SDS011;1180;51.438;6.978;2022-10-31T00:44:46;10.57;;;8.93;;
2338;SDS011;1180;51.438;6.978;2022-10-31T00:47:12;10.93;;;8.83;;
2338;SDS011;1180;51.438;6.978;2022-10-31T00:49:37;13.60;;;8.97;;
2338;SDS011;1180;51.438;6.978;2022-10-31T00:52:03;11.50;;;8.83;;
2338;SDS011;1180;51.438;6.978;2022-10-31T00:54:28;11.30;;;9.50;;
2338;SDS011;1180;51.438;6.978;2022-10-31T00:56:55;13.23;;;9.03;;
2338;SDS011;1180;51.438;6.978;2022-10-31T00:59:21;13.03;;;10.43;;
2338;SDS011;1180;51.438;6.978;2022-10-31T01:01:46;15.10;;;9.07;;
2338;SDS011;1180;51.438;6.978;2022-10-31T01:04:12;14.83;;;9.47;;
2338;SDS011;1180;51.438;6.978;2022-10-31T01:06:37;11.97;;;8.33;;
2338;SDS011;1180;51.438;6.978;2022-10-31T01:09:02;14.43;;;8.40;;
2338;SDS011;1180;51.438;6.978;2022-10-31T01:11:28;15.80;;;10.37;;
2338;SDS011;1180;51.438;6.978;2022-10-31T01:13:53;10.47;;;9.17;;
2338;SDS011;1180;51.438;6.978;2022-10-31T01:16:19;14.10;;;9.27;;
2338;SDS011;1180;51.438;6.978;2022-10-31T01:18:47;10.80;;;8.50;;
2338;SDS011;1180;51.438;6.978;2022-10-31T01:21:15;11.63;;;8.70;;
2338;SDS011;1180;51.438;6.978;2022-10-31T01:23:46;14.00;;;9.13;;
2338;SDS011;1180;51.438;6.978;2022-10-31T01:26:13;11.80;;;8.80;;
2338;SDS011;1180;51.438;6.978;2022-10-31T01:31:19;14.60;;;8.53;;
2338;SDS011;1180;51.438;6.978;2022-10-31T01:33:46;14.90;;;9.60;;
2338;SDS011;1180;51.438;6.978;2022-10-31T01:38:38;16.00;;;8.57;;
2338;SDS011;1180;51.438;6.978;2022-10-31T01:41:04;11.20;;;9.07;;
2338;SDS011;1180;51.438;6.978;2022-10-31T01:43:46;16.20;;;9.07;;
2338;SDS011;1180;51.438;6.978;2022-10-31T01:49:09;14.50;;;8.73;;
2338;SDS011;1180;51.438;6.978;2022-10-31T01:51:38;16.33;;;9.37;;
2338;SDS011;1180;51.438;6.978;2022-10-31T01:54:10;13.60;;;8.80;;
2338;SDS011;1180;51.438;6.978;2022-10-31T01:56:40;14.40;;;9.03;;
2338;SDS011;1180;51.438;6.978;2022-10-31T01:59:11;14.53;;;10.03;;
2338;SDS011;1180;51.438;6.978;2022-10-31T02:01:40;15.03;;;10.93;;
2338;SDS011;1180;51.438;6.978;2022-10-31T02:04:05;17.00;;;11.50;;
2338;SDS011;1180;51.438;6.978;2022-10-31T02:06:40;18.10;;;11.83;;
2338;SDS011;1180;51.438;6.978;2022-10-31T02:09:11;17.57;;;11.93;;
2338;SDS011;1180;51.438;6.978;2022-10-31T02:11:39;16.80;;;10.27;;
2338;SDS011;1180;51.438;6.978;2022-10-31T02:14:05;13.13;;;10.67;;
2338;SDS011;1180;51.438;6.978;2022-10-31T02:16:31;15.43;;;10.20;;
2338;SDS011;1180;51.438;6.978;2022-10-31T02:18:56;12.43;;;8.47;;
2338;SDS011;1180;51.438;6.978;2022-10-31T02:21:32;13.97;;;10.80;;
2338;SDS011;1180;51.438;6.978;2022-10-31T02:30:06;11.83;;;9.27;;
2338;SDS011;1180;51.438;6.978;2022-10-31T02:35:13;14.23;;;9.40;;
2338;SDS011;1180;51.438;6.978;2022-10-31T02:37:51;10.70;;;8.60;;
2338;SDS011;1180;51.438;6.978;2022-10-31T02:40:33;12.50;;;9.67;;
2338;SDS011;1180;51.438;6.978;2022-10-31T02:43:15;12.97;;;9.37;;
2338;SDS011;1180;51.438;6.978;2022-10-31T02:48:55;13.87;;;10.17;;
2338;SDS011;1180;51.438;6.978;2022-10-31T02:51:26;13.97;;;9.53;;
2338;SDS011;1180;51.438;6.978;2022-10-31T02:53:52;13.23;;;10.00;;
2338;SDS011;1180;51.438;6.978;2022-10-31T02:56:18;11.90;;;9.23;;
2338;SDS011;1180;51.438;6.978;2022-10-31T02:59:05;14.13;;;10.00;;
2338;SDS011;1180;51.438;6.978;2022-10-31T03:01:34;31.20;;;11.97;;
2338;SDS011;1180;51.438;6.978;2022-10-31T03:09:51;15.53;;;11.10;;
2338;SDS011;1180;51.438;6.978;2022-10-31T03:12:30;13.00;;;10.80;;
2338;SDS011;1180;51.438;6.978;2022-10-31T03:15:17;13.30;;;10.37;;
2338;SDS011;1180;51.438;6.978;2022-10-31T03:17:53;20.63;;;12.70;;
2338;SDS011;1180;51.438;6.978;2022-10-31T03:20:27;15.83;;;12.07;;
2338;SDS011;1180;51.438;6.978;2022-10-31T03:22:59;11.93;;;9.77;;
2338;SDS011;1180;51.438;6.978;2022-10-31T03:25:26;15.03;;;10.60;;
2338;SDS011;1180;51.438;6.978;2022-10-31T03:27:52;11.40;;;9.47;;
2338;SDS011;1180;51.438;6.978;2022-10-31T03:30:19;14.90;;;9.97;;
2338;SDS011;1180;51.438;6.978;2022-10-31T03:32:54;10.63;;;9.13;;
2338;SDS011;1180;51.438;6.978;2022-10-31T03:35:23;11.33;;;10.13;;
2338;SDS011;1180;51.438;6.978;2022-10-31T03:37:52;13.27;;;10.80;;
2338;SDS011;1180;51.438;6.978;2022-10-31T03:40:20;16.27;;;11.57;;
2338;SDS011;1180;51.438;6.978;2022-10-31T03:42:54;19.80;;;11.30;;
2338;SDS011;1180;51.438;6.978;2022-10-31T03:45:25;18.40;;;11.50;;
2338;SDS011;1180;51.438;6.978;2022-10-31T03:47:53;15.30;;;10.80;;
2338;SDS011;1180;51.438;6.978;2022-10-31T03:50:20;12.20;;;9.67;;
2338;SDS011;1180;51.438;6.978;2022-10-31T03:53:04;15.70;;;10.50;;
2338;SDS011;1180;51.438;6.978;2022-10-31T03:55:42;14.10;;;9.40;;
2338;SDS011;1180;51.438;6.978;2022-10-31T03:58:21;18.63;;;10.20;;
2338;SDS011;1180;51.438;6.978;2022-10-31T04:00:52;13.40;;;10.13;;
2338;SDS011;1180;51.438;6.978;2022-10-31T04:03:22;13.17;;;9.90;;
2338;SDS011;1180;51.438;6.978;2022-10-31T04:05:51;13.60;;;9.03;;
2338;SDS011;1180;51.438;6.978;2022-10-31T04:08:21;10.30;;;9.13;;
2338;SDS011;1180;51.438;6.978;2022-10-31T04:10:51;14.37;;;10.30;;
2338;SDS011;1180;51.438;6.978;2022-10-31T04:13:20;14.77;;;9.50;;
2338;SDS011;1180;51.438;6.978;2022-10-31T04:15:52;14.40;;;9.73;;
2338;SDS011;1180;51.438;6.978;2022-10-31T04:18:19;17.30;;;10.40;;
2338;SDS011;1180;51.438;6.978;2022-10-31T04:20:47;13.40;;;10.10;;
2338;SDS011;1180;51.438;6.978;2022-10-31T04:23:18;11.60;;;8.97;;
2338;SDS011;1180;51.438;6.978;2022-10-31T04:25:47;18.40;;;10.13;;
2338;SDS011;1180;51.438;6.978;2022-10-31T04:28:12;13.67;;;10.13;;
2338;SDS011;1180;51.438;6.978;2022-10-31T04:30:38;19.67;;;9.97;;
2338;SDS011;1180;51.438;6.978;2022-10-31T04:33:03;15.80;;;10.30;;
2338;SDS011;1180;51.438;6.978;2022-10-31T04:35:30;13.00;;;9.23;;
2338;SDS011;1180;51.438;6.978;2022-10-31T04:37:56;14.00;;;10.13;;
2338;SDS011;1180;51.438;6.978;2022-10-31T04:40:21;12.10;;;8.73;;
2338;SDS011;1180;51.438;6.978;2022-10-31T04:42:46;20.50;;;10.77;;
2338;SDS011;1180;51.438;6.978;2022-10-31T04:45:12;14.97;;;10.00;;
2338;SDS011;1180;51.438;6.978;2022-10-31T04:47:37;14.40;;;9.80;;
2338;SDS011;1180;51.438;6.978;2022-10-31T04:50:02;13.37;;;10.17;;
2338;SDS011;1180;51.438;6.978;2022-10-31T04:52:28;12.80;;;9.40;;
2338;SDS011;1180;51.438;6.978;2022-10-31T04:54:54;20.83;;;10.40;;
2338;SDS011;1180;51.438;6.978;2022-10-31T04:57:19;12.93;;;10.17;;
2338;SDS011;1180;51.438;6.978;2022-10-31T04:59:44;10.97;;;9.30;;
2338;SDS011;1180;51.438;6.978;2022-10-31T05:02:09;13.50;;;11.00;;
2338;SDS011;1180;51.438;6.978;2022-10-31T05:04:35;14.93;;;10.30;;
2338;SDS011;1180;51.438;6.978;2022-10-31T05:07:00;15.63;;;9.70;;
2338;SDS011;1180;51.438;6.978;2022-10-31T05:09:25;17.83;;;10.70;;
2338;SDS011;1180;51.438;6.978;2022-10-31T05:11:51;15.40;;;10.20;;
2338;SDS011;1180;51.438;6.978;2022-10-31T05:14:16;20.13;;;11.10;;
2338;SDS011;1180;51.438;6.978;2022-10-31T05:16:42;12.63;;;9.77;;
2338;SDS011;1180;51.438;6.978;2022-10-31T05:19:07;11.83;;;9.70;;
2338;SDS011;1180;51.438;6.978;2022-10-31T05:21:32;12.50;;;10.00;;
2338;SDS011;1180;51.438;6.978;2022-10-31T05:23:58;13.90;;;11.80;;
2338;SDS011;1180;51.438;6.978;2022-10-31T05:26:23;14.50;;;9.77;;
2338;SDS011;1180;51.438;6.978;2022-10-31T05:28:48;16.30;;;9.50;;
2338;SDS011;1180;51.438;6.978;2022-10-31T05:31:14;14.00;;;9.50;;
2338;SDS011;1180;51.438;6.978;2022-10-31T05:33:39;12.87;;;9.50;;
2338;SDS011;1180;51.438;6.978;2022-10-31T05:36:04;12.07;;;10.60;;
2338;SDS011;1180;51.438;6.978;2022-10-31T05:38:30;18.30;;;11.20;;
2338;SDS011;1180;51.438;6.978;2022-10-31T05:40:55;14.07;;;9.33;;
2338;SDS011;1180;51.438;6.978;2022-10-31T05:43:25;17.57;;;11.27;;
2338;SDS011;1180;51.438;6.978;2022-10-31T05:45:52;16.90;;;9.80;;
2338;SDS011;1180;51.438;6.978;2022-10-31T05:48:18;13.57;;;9.40;;
2338;SDS011;1180;51.438;6.978;2022-10-31T05:50:44;19.63;;;12.37;;
2338;SDS011;1180;51.438;6.978;2022-10-31T05:53:09;18.80;;;11.03;;
2338;SDS011;1180;51.438;6.978;2022-10-31T05:55:34;15.67;;;9.97;;
2338;SDS011;1180;51.438;6.978;2022-10-31T05:58:00;17.70;;;11.40;;
2338;SDS011;1180;51.438;6.978;2022-10-31T06:00:26;16.63;;;9.27;;
2338;SDS011;1180;51.438;6.978;2022-10-31T06:02:58;15.20;;;10.30;;
2338;SDS011;1180;51.438;6.978;2022-10-31T06:05:24;16.80;;;11.10;;
2338;SDS011;1180;51.438;6.978;2022-10-31T06:07:50;13.47;;;10.20;;
2338;SDS011;1180;51.438;6.978;2022-10-31T06:10:15;21.10;;;11.80;;
2338;SDS011;1180;51.438;6.978;2022-10-31T06:12:41;15.97;;;11.33;;
2338;SDS011;1180;51.438;6.978;2022-10-31T06:15:07;17.13;;;11.37;;
2338;SDS011;1180;51.438;6.978;2022-10-31T06:17:33;16.20;;;11.13;;
2338;SDS011;1180;51.438;6.978;2022-10-31T06:19:59;15.93;;;11.43;;
2338;SDS011;1180;51.438;6.978;2022-10-31T06:22:25;19.03;;;11.40;;
2338;SDS011;1180;51.438;6.978;2022-10-31T06:24:50;18.83;;;11.33;;
2338;SDS011;1180;51.438;6.978;2022-10-31T06:27:16;17.90;;;11.33;;
2338;SDS011;1180;51.438;6.978;2022-10-31T06:29:41;16.87;;;11.90;;
2338;SDS011;1180;51.438;6.978;2022-10-31T06:32:09;15.57;;;10.87;;
2338;SDS011;1180;51.438;6.978;2022-10-31T06:34:35;16.87;;;11.33;;
2338;SDS011;1180;51.438;6.978;2022-10-31T06:37:00;14.77;;;11.60;;
2338;SDS011;1180;51.438;6.978;2022-10-31T06:39:26;21.30;;;12.00;;
2338;SDS011;1180;51.438;6.978;2022-10-31T06:41:51;15.77;;;11.50;;
2338;SDS011;1180;51.438;6.978;2022-10-31T06:44:16;16.77;;;11.40;;
2338;SDS011;1180;51.438;6.978;2022-10-31T06:46:42;16.73;;;10.90;;
2338;SDS011;1180;51.438;6.978;2022-10-31T06:49:07;14.83;;;10.73;;
2338;SDS011;1180;51.438;6.978;2022-10-31T06:51:32;15.10;;;11.20;;
2338;SDS011;1180;51.438;6.978;2022-10-31T06:53:58;16.23;;;11.57;;
2338;SDS011;1180;51.438;6.978;2022-10-31T06:56:23;14.13;;;11.10;;
2338;SDS011;1180;51.438;6.978;2022-10-31T06:58:48;17.17;;;11.50;;
2338;SDS011;1180;51.438;6.978;2022-10-31T07:01:14;17.90;;;11.70;;
2338;SDS011;1180;51.438;6.978;2022-10-31T07:03:39;16.03;;;11.30;;
2338;SDS011;1180;51.438;6.978;2022-10-31T07:06:04;18.53;;;12.07;;
2338;SDS011;1180;51.438;6.978;2022-10-31T07:08:30;16.80;;;11.30;;
2338;SDS011;1180;51.438;6.978;2022-10-31T07:10:56;17.57;;;11.83;;
2338;SDS011;1180;51.438;6.978;2022-10-31T07:13:22;16.77;;;11.13;;
2338;SDS011;1180;51.438;6.978;2022-10-31T07:15:58;14.93;;;11.33;;
2338;SDS011;1180;51.438;6.978;2022-10-31T07:18:25;13.83;;;11.10;;
2338;SDS011;1180;51.438;6.978;2022-10-31T07:20:51;13.77;;;10.97;;
2338;SDS011;1180;51.438;6.978;2022-10-31T07:23:17;14.40;;;10.80;;
2338;SDS011;1180;51.438;6.978;2022-10-31T07:25:42;18.00;;;11.03;;
2338;SDS011;1180;51.438;6.978;2022-10-31T07:28:08;14.83;;;11.67;;
2338;SDS011;1180;51.438;6.978;2022-10-31T07:30:34;16.80;;;12.10;;
2338;SDS011;1180;51.438;6.978;2022-10-31T07:32:59;19.27;;;12.53;;
2338;SDS011;1180;51.438;6.978;2022-10-31T07:35:25;18.53;;;12.20;;
2338;SDS011;1180;51.438;6.978;2022-10-31T07:37:53;23.30;;;14.63;;
2338;SDS011;1180;51.438;6.978;2022-10-31T07:40:20;23.30;;;14.23;;
2338;SDS011;1180;51.438;6.978;2022-10-31T07:42:50;22.73;;;15.37;;
2338;SDS011;1180;51.438;6.978;2022-10-31T07:45:20;17.90;;;13.50;;
2338;SDS011;1180;51.438;6.978;2022-10-31T07:50:16;23.23;;;15.73;;
2338;SDS011;1180;51.438;6.978;2022-10-31T07:52:45;19.83;;;13.30;;
2338;SDS011;1180;51.438;6.978;2022-10-31T07:55:11;18.97;;;14.37;;
2338;SDS011;1180;51.438;6.978;2022-10-31T07:57:37;18.07;;;13.50;;
2338;SDS011;1180;51.438;6.978;2022-10-31T08:00:03;21.67;;;14.37;;
2338;SDS011;1180;51.438;6.978;2022-10-31T08:02:29;20.43;;;13.87;;
2338;SDS011;1180;51.438;6.978;2022-10-31T08:04:55;18.87;;;14.37;;
2338;SDS011;1180;51.438;6.978;2022-10-31T08:07:20;15.93;;;12.60;;
2338;SDS011;1180;51.438;6.978;2022-10-31T08:09:47;22.90;;;13.70;;
2338;SDS011;1180;51.438;6.978;2022-10-31T08:12:12;16.60;;;13.50;;
2338;SDS011;1180;51.438;6.978;2022-10-31T08:14:38;17.10;;;13.20;;
2338;SDS011;1180;51.438;6.978;2022-10-31T08:17:03;18.90;;;13.20;;
2338;SDS011;1180;51.438;6.978;2022-10-31T08:19:28;17.40;;;13.20;;
2338;SDS011;1180;51.438;6.978;2022-10-31T08:21:54;18.07;;;13.10;;
2338;SDS011;1180;51.438;6.978;2022-10-31T08:24:20;26.77;;;16.70;;
2338;SDS011;1180;51.438;6.978;2022-10-31T08:26:46;19.73;;;15.23;;
2338;SDS011;1180;51.438;6.978;2022-10-31T08:29:11;18.50;;;13.57;;
2338;SDS011;1180;51.438;6.978;2022-10-31T08:31:37;21.00;;;16.40;;
2338;SDS011;1180;51.438;6.978;2022-10-31T08:34:03;20.37;;;16.40;;
2338;SDS011;1180;51.438;6.978;2022-10-31T08:36:28;18.83;;;13.60;;
2338;SDS011;1180;51.438;6.978;2022-10-31T08:38:54;21.70;;;15.47;;
2338;SDS011;1180;51.438;6.978;2022-10-31T08:41:19;19.50;;;14.30;;
2338;SDS011;1180;51.438;6.978;2022-10-31T08:43:44;20.77;;;14.67;;
2338;SDS011;1180;51.438;6.978;2022-10-31T08:46:10;26.63;;;15.63;;
2338;SDS011;1180;51.438;6.978;2022-10-31T08:48:35;19.13;;;14.90;;
2338;SDS011;1180;51.438;6.978;2022-10-31T08:51:01;26.40;;;15.90;;
2338;SDS011;1180;51.438;6.978;2022-10-31T08:53:26;24.90;;;15.00;;
2338;SDS011;1180;51.438;6.978;2022-10-31T08:55:54;32.00;;;17.23;;
2338;SDS011;1180;51.438;6.978;2022-10-31T08:58:20;26.40;;;16.90;;
2338;SDS011;1180;51.438;6.978;2022-10-31T09:00:47;24.07;;;16.40;;
2338;SDS011;1180;51.438;6.978;2022-10-31T09:03:18;29.70;;;17.23;;
2338;SDS011;1180;51.438;6.978;2022-10-31T09:05:48;25.60;;;16.50;;
2338;SDS011;1180;51.438;6.978;2022-10-31T09:08:14;22.30;;;15.73;;
2338;SDS011;1180;51.438;6.978;2022-10-31T09:10:40;22.63;;;15.50;;
2338;SDS011;1180;51.438;6.978;2022-10-31T09:13:08;20.57;;;14.60;;
2338;SDS011;1180;51.438;6.978;2022-10-31T09:15:35;25.07;;;16.57;;
2338;SDS011;1180;51.438;6.978;2022-10-31T09:18:03;25.10;;;16.77;;
2338;SDS011;1180;51.438;6.978;2022-10-31T09:20:30;26.70;;;16.90;;
2338;SDS011;1180;51.438;6.978;2022-10-31T09:23:00;27.73;;;18.23;;
2338;SDS011;1180;51.438;6.978;2022-10-31T09:25:26;26.37;;;17.40;;
2338;SDS011;1180;51.438;6.978;2022-10-31T09:27:59;20.40;;;15.40;;
2338;SDS011;1180;51.438;6.978;2022-10-31T09:30:26;22.47;;;16.00;;
2338;SDS011;1180;51.438;6.978;2022-10-31T09:32:57;24.80;;;16.93;;
2338;SDS011;1180;51.438;6.978;2022-10-31T09:35:24;28.40;;;19.57;;
2338;SDS011;1180;51.438;6.978;2022-10-31T09:40:46;26.07;;;17.53;;
2338;SDS011;1180;51.438;6.978;2022-10-31T09:43:21;25.43;;;16.40;;
2338;SDS011;1180;51.438;6.978;2022-10-31T09:56:24;22.07;;;17.30;;
2338;SDS011;1180;51.438;6.978;2022-10-31T09:58:55;23.30;;;17.63;;
2338;SDS011;1180;51.438;6.978;2022-10-31T10:04:10;24.30;;;17.97;;
2338;SDS011;1180;51.438;6.978;2022-10-31T10:06:41;21.70;;;17.13;;
2338;SDS011;1180;51.438;6.978;2022-10-31T10:09:10;24.43;;;17.27;;
2338;SDS011;1180;51.438;6.978;2022-10-31T10:30:04;25.43;;;17.83;;
2338;SDS011;1180;51.438;6.978;2022-10-31T10:32:40;26.10;;;16.63;;
2338;SDS011;1180;51.438;6.978;2022-10-31T10:40:35;22.73;;;15.80;;
2338;SDS011;1180;51.438;6.978;2022-10-31T10:51:38;18.90;;;14.77;;
2338;SDS011;1180;51.438;6.978;2022-10-31T11:00:12;24.50;;;16.67;;
2338;SDS011;1180;51.438;6.978;2022-10-31T11:02:42;20.87;;;15.03;;
2338;SDS011;1180;51.438;6.978;2022-10-31T11:05:12;25.73;;;17.50;;
2338;SDS011;1180;51.438;6.978;2022-10-31T11:07:43;26.97;;;19.13;;
2338;SDS011;1180;51.438;6.978;2022-10-31T11:10:12;18.90;;;14.17;;
2338;SDS011;1180;51.438;6.978;2022-10-31T11:12:42;19.73;;;14.13;;
2338;SDS011;1180;51.438;6.978;2022-10-31T11:18:22;20.70;;;15.67;;
2338;SDS011;1180;51.438;6.978;2022-10-31T11:20:51;22.07;;;15.17;;
2338;SDS011;1180;51.438;6.978;2022-10-31T11:23:19;18.90;;;14.10;;
2338;SDS011;1180;51.438;6.978;2022-10-31T11:25:49;25.37;;;15.63;;
2338;SDS011;1180;51.438;6.978;2022-10-31T11:28:15;19.03;;;13.43;;
2338;SDS011;1180;51.438;6.978;2022-10-31T11:30:45;17.60;;;13.90;;
2338;SDS011;1180;51.438;6.978;2022-10-31T11:33:16;20.43;;;15.53;;
2338;SDS011;1180;51.438;6.978;2022-10-31T11:36:09;19.80;;;14.20;;
2338;SDS011;1180;51.438;6.978;2022-10-31T11:38:41;21.73;;;14.00;;
2338;SDS011;1180;51.438;6.978;2022-10-31T11:41:12;24.53;;;11.87;;
2338;SDS011;1180;51.438;6.978;2022-10-31T11:43:45;16.63;;;11.13;;
2338;SDS011;1180;51.438;6.978;2022-10-31T11:46:17;15.57;;;12.37;;
2338;SDS011;1180;51.438;6.978;2022-10-31T11:48:50;18.00;;;12.80;;
2338;SDS011;1180;51.438;6.978;2022-10-31T11:51:28;16.60;;;13.37;;
2338;SDS011;1180;51.438;6.978;2022-10-31T11:53:58;15.90;;;11.90;;
2338;SDS011;1180;51.438;6.978;2022-10-31T11:56:27;15.90;;;11.47;;
2338;SDS011;1180;51.438;6.978;2022-10-31T11:58:56;18.97;;;12.40;;
2338;SDS011;1180;51.438;6.978;2022-10-31T12:01:28;13.60;;;10.83;;
2338;SDS011;1180;51.438;6.978;2022-10-31T12:04:12;20.13;;;11.20;;
2338;SDS011;1180;51.438;6.978;2022-10-31T12:06:39;18.17;;;11.70;;
2338;SDS011;1180;51.438;6.978;2022-10-31T12:27:57;13.00;;;9.73;;
2338;SDS011;1180;51.438;6.978;2022-10-31T12:30:46;13.47;;;9.17;;
2338;SDS011;1180;51.438;6.978;2022-10-31T12:33:25;15.33;;;10.10;;
2338;SDS011;1180;51.438;6.978;2022-10-31T12:36:15;12.70;;;9.53;;
2338;SDS011;1180;51.438;6.978;2022-10-31T12:39:07;16.33;;;9.07;;
2338;SDS011;1180;51.438;6.978;2022-10-31T12:42:10;10.70;;;8.20;;
2338;SDS011;1180;51.438;6.978;2022-10-31T12:47:55;15.60;;;9.77;;
2338;SDS011;1180;51.438;6.978;2022-10-31T12:50:47;10.23;;;8.10;;
2338;SDS011;1180;51.438;6.978;2022-10-31T12:53:31;14.40;;;9.23;;
2338;SDS011;1180;51.438;6.978;2022-10-31T12:59:01;11.20;;;9.07;;
2338;SDS011;1180;51.438;6.978;2022-10-31T13:01:35;14.10;;;8.10;;
2338;SDS011;1180;51.438;6.978;2022-10-31T13:04:14;12.83;;;8.67;;
2338;SDS011;1180;51.438;6.978;2022-10-31T13:07:00;10.27;;;8.77;;
2338;SDS011;1180;51.438;6.978;2022-10-31T13:09:34;10.20;;;6.70;;
2338;SDS011;1180;51.438;6.978;2022-10-31T13:12:13;12.03;;;8.27;;
2338;SDS011;1180;51.438;6.978;2022-10-31T13:14:44;8.50;;;6.53;;
2338;SDS011;1180;51.438;6.978;2022-10-31T13:22:39;7.77;;;6.97;;
2338;SDS011;1180;51.438;6.978;2022-10-31T13:30:32;5.80;;;5.03;;
2338;SDS011;1180;51.438;6.978;2022-10-31T13:38:12;14.20;;;6.90;;
2338;SDS011;1180;51.438;6.978;2022-10-31T13:40:50;12.23;;;5.87;;
2338;SDS011;1180;51.438;6.978;2022-10-31T13:45:53;11.60;;;6.50;;
2338;SDS011;1180;51.438;6.978;2022-10-31T13:48:32;9.73;;;6.00;;
2338;SDS011;1180;51.438;6.978;2022-10-31T13:51:07;8.30;;;6.83;;
2338;SDS011;1180;51.438;6.978;2022-10-31T13:53:43;8.03;;;6.40;;
2338;SDS011;1180;51.438;6.978;2022-10-31T13:56:30;8.27;;;4.83;;
2338;SDS011;1180;51.438;6.978;2022-10-31T13:59:01;12.67;;;5.80;;
2338;SDS011;1180;51.438;6.978;2022-10-31T14:01:28;7.40;;;4.93;;
2338;SDS011;1180;51.438;6.978;2022-10-31T14:06:48;7.73;;;5.80;;
2338;SDS011;1180;51.438;6.978;2022-10-31T14:09:19;5.40;;;4.90;;
2338;SDS011;1180;51.438;6.978;2022-10-31T14:11:58;8.17;;;4.70;;
2338;SDS011;1180;51.438;6.978;2022-10-31T14:14:29;6.20;;;3.83;;
2338;SDS011;1180;51.438;6.978;2022-10-31T14:17:04;9.93;;;4.90;;
2338;SDS011;1180;51.438;6.978;2022-10-31T14:19:30;7.33;;;4.77;;
2338;SDS011;1180;51.438;6.978;2022-10-31T14:21:56;9.93;;;4.40;;
2338;SDS011;1180;51.438;6.978;2022-10-31T14:31:44;8.50;;;3.70;;
2338;SDS011;1180;51.438;6.978;2022-10-31T14:34:50;6.50;;;4.30;;
2338;SDS011;1180;51.438;6.978;2022-10-31T14:50:20;6.63;;;3.80;;
2338;SDS011;1180;51.438;6.978;2022-10-31T14:52:50;5.07;;;3.80;;
2338;SDS011;1180;51.438;6.978;2022-10-31T14:55:18;5.27;;;4.03;;
2338;SDS011;1180;51.438;6.978;2022-10-31T14:57:48;5.67;;;3.83;;
2338;SDS011;1180;51.438;6.978;2022-10-31T15:00:18;9.03;;;5.07;;
2338;SDS011;1180;51.438;6.978;2022-10-31T15:05:29;10.17;;;4.37;;
2338;SDS011;1180;51.438;6.978;2022-10-31T15:07:57;8.10;;;3.63;;
2338;SDS011;1180;51.438;6.978;2022-10-31T15:12:50;7.47;;;3.90;;
2338;SDS011;1180;51.438;6.978;2022-10-31T15:15:20;10.20;;;4.50;;
2338;SDS011;1180;51.438;6.978;2022-10-31T15:17:49;8.50;;;4.10;;
2338;SDS011;1180;51.438;6.978;2022-10-31T15:20:18;5.03;;;3.77;;
2338;SDS011;1180;51.438;6.978;2022-10-31T15:22:46;5.03;;;3.40;;
2338;SDS011;1180;51.438;6.978;2022-10-31T15:25:17;4.57;;;3.67;;
2338;SDS011;1180;51.438;6.978;2022-10-31T15:27:44;5.40;;;4.00;;
2338;SDS011;1180;51.438;6.978;2022-10-31T15:30:20;7.80;;;4.97;;
2338;SDS011;1180;51.438;6.978;2022-10-31T15:32:46;6.37;;;4.10;;
2338;SDS011;1180;51.438;6.978;2022-10-31T15:35:19;6.83;;;4.77;;
2338;SDS011;1180;51.438;6.978;2022-10-31T15:37:52;9.57;;;4.70;;
2338;SDS011;1180;51.438;6.978;2022-10-31T15:40:19;5.57;;;4.07;;
2338;SDS011;1180;51.438;6.978;2022-10-31T15:42:49;7.50;;;4.63;;
2338;SDS011;1180;51.438;6.978;2022-10-31T15:45:18;6.57;;;3.30;;
2338;SDS011;1180;51.438;6.978;2022-10-31T15:47:58;6.77;;;5.00;;
2338;SDS011;1180;51.438;6.978;2022-10-31T15:53:05;6.53;;;4.00;;
2338;SDS011;1180;51.438;6.978;2022-10-31T15:55:46;8.57;;;4.00;;
2338;SDS011;1180;51.438;6.978;2022-10-31T15:58:16;5.70;;;3.43;;
2338;SDS011;1180;51.438;6.978;2022-10-31T16:00:42;14.33;;;4.60;;
2338;SDS011;1180;51.438;6.978;2022-10-31T16:05:46;6.47;;;4.10;;
2338;SDS011;1180;51.438;6.978;2022-10-31T16:08:25;10.07;;;4.77;;
2338;SDS011;1180;51.438;6.978;2022-10-31T16:10:50;9.57;;;5.03;;
2338;SDS011;1180;51.438;6.978;2022-10-31T16:13:16;8.30;;;3.83;;
2338;SDS011;1180;51.438;6.978;2022-10-31T16:15:47;8.37;;;4.17;;
2338;SDS011;1180;51.438;6.978;2022-10-31T16:18:19;12.33;;;4.87;;
2338;SDS011;1180;51.438;6.978;2022-10-31T16:20:48;7.77;;;4.30;;
2338;SDS011;1180;51.438;6.978;2022-10-31T16:23:18;4.83;;;3.87;;
2338;SDS011;1180;51.438;6.978;2022-10-31T16:25:48;8.03;;;4.73;;
2338;SDS011;1180;51.438;6.978;2022-10-31T16:28:16;8.00;;;4.60;;
2338;SDS011;1180;51.438;6.978;2022-10-31T16:30:44;5.57;;;3.60;;
2338;SDS011;1180;51.438;6.978;2022-10-31T16:33:22;4.60;;;3.70;;
2338;SDS011;1180;51.438;6.978;2022-10-31T16:35:51;7.63;;;3.93;;
2338;SDS011;1180;51.438;6.978;2022-10-31T16:38:17;10.93;;;5.30;;
2338;SDS011;1180;51.438;6.978;2022-10-31T16:40:43;10.13;;;4.13;;
2338;SDS011;1180;51.438;6.978;2022-10-31T16:43:13;5.77;;;4.07;;
2338;SDS011;1180;51.438;6.978;2022-10-31T16:45:46;5.50;;;3.90;;
2338;SDS011;1180;51.438;6.978;2022-10-31T16:48:14;10.53;;;4.57;;
2338;SDS011;1180;51.438;6.978;2022-10-31T16:50:41;8.30;;;3.97;;
2338;SDS011;1180;51.438;6.978;2022-10-31T16:53:08;4.73;;;3.47;;
2338;SDS011;1180;51.438;6.978;2022-10-31T16:55:34;8.00;;;5.07;;
2338;SDS011;1180;51.438;6.978;2022-10-31T16:58:06;7.33;;;3.90;;
2338;SDS011;1180;51.438;6.978;2022-10-31T17:00:36;6.30;;;4.60;;
2338;SDS011;1180;51.438;6.978;2022-10-31T17:03:02;7.60;;;4.10;;
2338;SDS011;1180;51.438;6.978;2022-10-31T17:05:29;6.13;;;4.17;;
2338;SDS011;1180;51.438;6.978;2022-10-31T17:07:56;6.13;;;4.17;;
2338;SDS011;1180;51.438;6.978;2022-10-31T17:10:22;11.07;;;4.30;;
2338;SDS011;1180;51.438;6.978;2022-10-31T17:12:48;9.17;;;5.07;;
2338;SDS011;1180;51.438;6.978;2022-10-31T17:15:18;15.50;;;4.93;;
2338;SDS011;1180;51.438;6.978;2022-10-31T17:17:49;7.80;;;4.70;;
2338;SDS011;1180;51.438;6.978;2022-10-31T17:20:19;7.20;;;3.63;;
2338;SDS011;1180;51.438;6.978;2022-10-31T17:22:44;5.30;;;3.80;;
2338;SDS011;1180;51.438;6.978;2022-10-31T17:25:12;9.20;;;4.40;;
2338;SDS011;1180;51.438;6.978;2022-10-31T17:27:40;9.43;;;4.00;;
2338;SDS011;1180;51.438;6.978;2022-10-31T17:30:06;4.03;;;3.53;;
2338;SDS011;1180;51.438;6.978;2022-10-31T17:32:32;6.00;;;4.20;;
2338;SDS011;1180;51.438;6.978;2022-10-31T17:34:57;8.37;;;4.70;;
2338;SDS011;1180;51.438;6.978;2022-10-31T17:37:23;7.63;;;4.90;;
2338;SDS011;1180;51.438;6.978;2022-10-31T17:39:48;9.80;;;4.10;;
2338;SDS011;1180;51.438;6.978;2022-10-31T17:42:13;8.80;;;5.00;;
2338;SDS011;1180;51.438;6.978;2022-10-31T17:44:39;11.53;;;5.33;;
2338;SDS011;1180;51.438;6.978;2022-10-31T17:47:04;6.73;;;5.00;;
2338;SDS011;1180;51.438;6.978;2022-10-31T17:49:30;8.70;;;5.00;;
2338;SDS011;1180;51.438;6.978;2022-10-31T17:51:55;9.50;;;5.17;;